createdAt,value
2018-03-11T00:02:14.646Z,98893.08
2018-03-11T00:04:42.222Z,98897.08
2018-03-11T00:07:09.936Z,98895.59
2018-03-11T00:09:37.546Z,98896.76
2018-03-11T00:12:05.138Z,98898.42
2018-03-11T00:14:32.694Z,98890.36
2018-03-11T00:17:00.276Z,98889.58
2018-03-11T00:19:27.850Z,98891.88
2018-03-11T00:21:55.466Z,98888.51
2018-03-11T00:24:23.224Z,98884.62
2018-03-11T00:26:50.940Z,98883.92
2018-03-11T00:29:18.729Z,98883.86
2018-03-11T00:31:46.294Z,98875.22
2018-03-11T00:34:14.012Z,98883.23
2018-03-11T00:36:41.622Z,98884.82
2018-03-11T00:39:09.368Z,98878.73
2018-03-11T00:41:36.929Z,98883.63
2018-03-11T00:44:04.704Z,98880.28
2018-03-11T00:46:32.366Z,98874.17
2018-03-11T00:48:59.926Z,98866.53
2018-03-11T00:51:27.662Z,98864.23
2018-03-11T00:53:55.234Z,98863.94
2018-03-11T00:56:22.994Z,98860.13
2018-03-11T00:58:50.610Z,98863.72
2018-03-11T01:01:18.185Z,98869.36
2018-03-11T01:03:45.826Z,98876.95
2018-03-11T01:06:13.782Z,98869.82
2018-03-11T01:08:41.375Z,98874.07
2018-03-11T01:11:09.006Z,98875.95
2018-03-11T01:13:36.720Z,98872.53
2018-03-11T01:16:04.331Z,98880.25
2018-03-11T01:18:31.901Z,98880.26
2018-03-11T01:20:59.481Z,98869.59
2018-03-11T01:23:27.184Z,98874.55
2018-03-11T01:25:54.743Z,98874.69
2018-03-11T01:28:22.307Z,98868.61
2018-03-11T01:30:50.017Z,98863.61
2018-03-11T01:33:17.655Z,98870.81
2018-03-11T01:35:45.267Z,98876.54
2018-03-11T01:38:12.966Z,98876.71
2018-03-11T01:40:40.610Z,98875.95
2018-03-11T01:43:08.425Z,98881.52
2018-03-11T01:45:35.989Z,98878.52
2018-03-11T01:48:03.614Z,98876.71
2018-03-11T01:50:31.390Z,98875.00
2018-03-11T01:53:09.028Z,98872.11
2018-03-11T01:55:36.615Z,98876.53
2018-03-11T01:58:04.378Z,98874.38
2018-03-11T02:00:31.975Z,98871.84
2018-03-11T02:02:59.680Z,98866.54
2018-03-11T02:05:27.532Z,98866.13
2018-03-11T02:07:55.438Z,98863.59
2018-03-11T02:10:23.153Z,98859.02
2018-03-11T02:12:50.721Z,98854.96
2018-03-11T02:15:18.506Z,98854.03
2018-03-11T02:17:46.326Z,98856.44
2018-03-11T02:20:13.890Z,98859.16
2018-03-11T02:22:41.442Z,98859.07
2018-03-11T02:25:09.152Z,98862.88
2018-03-11T02:27:36.731Z,98863.25
2018-03-11T02:30:04.615Z,98870.48
2018-03-11T02:32:32.334Z,98869.09
2018-03-11T02:34:59.930Z,98875.38
2018-03-11T02:37:27.672Z,98880.19
2018-03-11T02:39:55.249Z,98878.02
2018-03-11T02:42:22.859Z,98886.33
2018-03-11T02:44:50.584Z,98883.33
2018-03-11T02:47:18.156Z,98876.20
2018-03-11T02:49:45.964Z,98879.67
2018-03-11T02:52:13.523Z,98870.95
2018-03-11T02:54:41.142Z,98868.73
2018-03-11T02:57:08.913Z,98871.03
2018-03-11T02:59:36.522Z,98875.81
2018-03-11T03:02:04.105Z,98877.92
2018-03-11T03:04:31.657Z,98871.58
2018-03-11T03:06:59.486Z,98859.80
2018-03-11T03:09:27.082Z,98871.14
2018-03-11T03:11:54.921Z,98880.75
2018-03-11T03:14:22.742Z,98871.22
2018-03-11T03:16:50.302Z,98870.73
2018-03-11T03:19:17.924Z,98875.39
2018-03-11T03:21:45.694Z,98879.69
2018-03-11T03:24:13.412Z,98875.80
2018-03-11T03:26:41.230Z,98870.03
2018-03-11T03:29:08.791Z,98869.84
2018-03-11T03:31:36.414Z,98872.92
2018-03-11T03:34:04.077Z,98867.10
2018-03-11T03:36:31.803Z,98872.03
2018-03-11T03:38:59.371Z,98867.91
2018-03-11T03:41:27.138Z,98865.33
2018-03-11T03:43:54.957Z,98858.15
2018-03-11T03:46:22.521Z,98851.36
2018-03-11T03:48:50.078Z,98856.17
2018-03-11T03:51:17.775Z,98850.70
2018-03-11T03:53:45.335Z,98853.94
2018-03-11T03:56:13.146Z,98851.41
2018-03-11T03:58:40.741Z,98850.80
2018-03-11T04:01:08.293Z,98853.58
2018-03-11T04:03:35.862Z,98850.34
2018-03-11T04:06:03.498Z,98858.70
2018-03-11T04:08:31.222Z,98852.48
2018-03-11T04:10:58.932Z,98851.08
2018-03-11T04:13:26.563Z,98855.23
2018-03-11T04:15:54.138Z,98854.59
2018-03-11T04:18:21.908Z,98852.06
2018-03-11T04:20:49.639Z,98856.84
2018-03-11T04:23:17.197Z,98854.78
2018-03-11T04:25:44.760Z,98847.89
2018-03-11T04:28:12.365Z,98855.78
2018-03-11T04:30:40.097Z,98851.95
2018-03-11T04:33:07.727Z,98854.96
2018-03-11T04:35:35.296Z,98854.20
2018-03-11T04:38:02.875Z,98853.95
2018-03-11T04:40:30.446Z,98857.77
2018-03-11T04:42:58.001Z,98866.14
2018-03-11T04:45:25.806Z,98864.77
2018-03-11T04:47:53.361Z,98867.41
2018-03-11T04:50:21.119Z,98873.19
2018-03-11T04:52:48.691Z,98871.26
2018-03-11T04:55:16.275Z,98870.12
2018-03-11T04:57:43.901Z,98870.16
2018-03-11T05:00:11.715Z,98869.82
2018-03-11T05:02:39.278Z,98872.75
2018-03-11T05:05:06.882Z,98874.99
2018-03-11T05:07:34.666Z,98868.16
2018-03-11T05:10:02.370Z,98870.89
2018-03-11T05:12:29.989Z,98877.11
2018-03-11T05:14:57.720Z,98871.19
2018-03-11T05:17:25.282Z,98875.70
2018-03-11T05:19:52.841Z,98873.54
2018-03-11T05:22:20.476Z,98879.23
2018-03-11T05:24:48.044Z,98878.87
2018-03-11T05:27:15.603Z,98886.59
2018-03-11T05:29:43.162Z,98873.10
2018-03-11T05:32:10.945Z,98890.63
2018-03-11T05:34:38.766Z,98890.44
2018-03-11T05:37:06.583Z,98885.78
2018-03-11T05:39:34.142Z,98880.81
2018-03-11T05:42:01.918Z,98878.82
2018-03-11T05:44:29.508Z,98872.09
2018-03-11T05:46:57.126Z,98879.53
2018-03-11T05:49:24.839Z,98883.00
2018-03-11T05:51:52.555Z,98875.90
2018-03-11T05:54:20.131Z,98875.32
2018-03-11T05:56:47.695Z,98867.46
2018-03-11T05:59:15.315Z,98871.29
2018-03-11T06:01:42.874Z,98869.20
2018-03-11T06:04:10.680Z,98870.27
2018-03-11T06:06:38.245Z,98876.80
2018-03-11T06:09:05.816Z,98884.95
2018-03-11T06:11:33.446Z,98882.41
2018-03-11T06:14:01.022Z,98894.61
2018-03-11T06:16:28.581Z,98891.08
2018-03-11T06:18:56.149Z,98879.60
2018-03-11T06:21:23.714Z,98890.70
2018-03-11T06:23:51.352Z,98887.61
2018-03-11T06:26:19.140Z,98890.67
2018-03-11T06:28:46.703Z,98902.95
2018-03-11T06:31:14.476Z,98903.68
2018-03-11T06:33:42.034Z,98906.13
2018-03-11T06:36:09.913Z,98910.82
2018-03-11T06:38:37.731Z,98902.05
2018-03-11T06:41:05.298Z,98908.61
2018-03-11T06:43:32.874Z,98904.35
2018-03-11T06:46:00.429Z,98899.82
2018-03-11T06:48:28.050Z,98899.20
2018-03-11T06:50:55.606Z,98904.13
2018-03-11T06:53:23.161Z,98909.36
2018-03-11T06:55:50.734Z,98899.06
2018-03-11T06:58:18.308Z,98895.81
2018-03-11T07:00:45.940Z,98888.11
2018-03-11T07:03:13.691Z,98889.15
2018-03-11T07:05:41.427Z,98891.77
2018-03-11T07:08:09.002Z,98884.11
2018-03-11T07:10:36.763Z,98887.98
2018-03-11T07:13:04.398Z,98889.72
2018-03-11T07:15:31.970Z,98882.61
2018-03-11T07:17:59.557Z,98892.61
2018-03-11T07:20:27.179Z,98893.09
2018-03-11T07:22:54.953Z,98884.59
2018-03-11T07:25:22.510Z,98880.34
2018-03-11T07:27:50.389Z,98895.50
2018-03-11T07:30:18.270Z,98884.17
2018-03-11T07:32:45.864Z,98886.92
2018-03-11T07:35:13.474Z,98893.35
2018-03-11T07:37:41.052Z,98888.88
2018-03-11T07:40:08.602Z,98885.58
2018-03-11T07:42:36.397Z,98889.27
2018-03-11T07:45:04.217Z,98889.86
2018-03-11T07:47:31.815Z,98894.81
2018-03-11T07:49:59.654Z,98892.53
2018-03-11T07:52:27.215Z,98893.39
2018-03-11T07:54:54.777Z,98891.38
2018-03-11T07:57:22.606Z,98891.16
2018-03-11T07:59:50.323Z,98888.91
2018-03-11T08:02:17.882Z,98884.06
2018-03-11T08:04:45.519Z,98883.18
2018-03-11T08:07:13.082Z,98893.13
2018-03-11T08:09:40.796Z,98882.53
2018-03-11T08:12:08.613Z,98874.91
2018-03-11T08:14:36.220Z,98871.92
2018-03-11T08:17:03.952Z,98868.11
2018-03-11T08:19:31.561Z,98866.88
2018-03-11T08:21:59.285Z,98868.33
2018-03-11T08:24:26.837Z,98868.19
2018-03-11T08:26:54.839Z,98871.16
2018-03-11T08:29:22.384Z,98867.16
2018-03-11T08:31:49.959Z,98864.64
2018-03-11T08:34:17.590Z,98860.92
2018-03-11T08:36:45.394Z,98859.83
2018-03-11T08:39:12.969Z,98865.87
2018-03-11T08:41:40.796Z,98861.69
2018-03-11T08:44:08.347Z,98854.77
2018-03-11T08:46:36.168Z,98859.27
2018-03-11T08:49:03.795Z,98861.00
2018-03-11T08:51:31.346Z,98861.36
2018-03-11T08:53:58.910Z,98862.12
2018-03-11T08:56:26.514Z,98852.61
2018-03-11T08:58:54.069Z,98853.70
2018-03-11T09:01:21.875Z,98859.12
2018-03-11T09:03:49.486Z,98862.12
2018-03-11T09:06:17.211Z,98859.98
2018-03-11T09:08:44.762Z,98862.78
2018-03-11T09:11:12.547Z,98855.06
2018-03-11T09:13:40.115Z,98857.86
2018-03-11T09:16:07.673Z,98846.13
2018-03-11T09:18:35.292Z,98852.89
2018-03-11T09:21:03.017Z,98852.45
2018-03-11T09:23:30.573Z,98842.43
2018-03-11T09:25:58.327Z,98847.34
2018-03-11T09:28:25.882Z,98849.19
2018-03-11T09:30:53.438Z,98850.41
2018-03-11T09:33:21.308Z,98851.82
2018-03-11T09:35:48.917Z,98858.91
2018-03-11T09:38:16.472Z,98847.26
2018-03-11T09:40:44.136Z,98849.48
2018-03-11T09:43:11.846Z,98843.33
2018-03-11T09:45:39.565Z,98839.79
2018-03-11T09:48:07.198Z,98832.45
2018-03-11T09:50:34.897Z,98839.92
2018-03-11T09:53:02.454Z,98831.48
2018-03-11T09:55:30.067Z,98841.45
2018-03-11T09:57:57.625Z,98838.31
2018-03-11T10:00:25.187Z,98842.52
2018-03-11T10:02:52.789Z,98842.36
2018-03-11T10:05:20.540Z,98841.83
2018-03-11T10:07:48.151Z,98837.24
2018-03-11T10:10:15.977Z,98823.58
2018-03-11T10:12:43.535Z,98830.47
2018-03-11T10:15:11.095Z,98824.27
2018-03-11T10:17:38.930Z,98823.89
2018-03-11T10:20:06.498Z,98818.45
2018-03-11T10:22:34.272Z,98807.78
2018-03-11T10:25:01.895Z,98815.83
2018-03-11T10:27:29.445Z,98807.37
2018-03-11T10:29:57.007Z,98807.84
2018-03-11T10:32:24.630Z,98809.94
2018-03-11T10:34:52.186Z,98802.45
2018-03-11T10:37:19.777Z,98799.13
2018-03-11T10:39:47.593Z,98804.09
2018-03-11T10:42:15.306Z,98796.17
2018-03-11T10:44:42.870Z,98799.02
2018-03-11T10:47:10.627Z,98795.52
2018-03-11T10:49:38.365Z,98795.23
2018-03-11T10:52:05.930Z,98792.44
2018-03-11T10:54:33.541Z,98789.53
2018-03-11T10:57:01.279Z,98785.94
2018-03-11T10:59:28.830Z,98786.55
2018-03-11T11:02:02.006Z,98782.84
2018-03-11T11:04:42.546Z,98788.41
2018-03-11T11:07:10.154Z,98782.21
2018-03-11T11:09:37.709Z,98773.53
2018-03-11T11:12:05.493Z,98768.44
2018-03-11T11:14:33.419Z,98768.85
2018-03-11T11:17:00.995Z,98762.53
2018-03-11T11:19:28.576Z,98766.61
2018-03-11T11:21:56.198Z,98759.19
2018-03-11T11:24:23.767Z,98755.56
2018-03-11T11:26:51.334Z,98744.84
2018-03-11T11:29:19.120Z,98746.86
2018-03-11T11:31:46.683Z,98748.05
2018-03-11T11:34:14.432Z,98742.61
2018-03-11T11:36:42.272Z,98737.30
2018-03-11T11:39:09.830Z,98735.63
2018-03-11T11:41:37.608Z,98726.02
2018-03-11T11:44:05.238Z,98715.61
2018-03-11T11:46:32.824Z,98722.15
2018-03-11T11:49:00.453Z,98709.98
2018-03-11T11:51:28.105Z,98712.89
2018-03-11T11:53:55.898Z,98707.94
2018-03-11T11:56:23.482Z,98706.39
2018-03-11T11:58:51.090Z,98714.89
2018-03-11T12:01:18.853Z,98707.33
2018-03-11T12:03:46.411Z,98709.12
2018-03-11T12:06:14.030Z,98700.92
2018-03-11T12:08:41.584Z,98699.12
2018-03-11T12:11:09.142Z,98696.58
2018-03-11T12:13:36.941Z,98698.19
2018-03-11T12:16:04.760Z,98698.83
2018-03-11T12:18:32.316Z,98699.38
2018-03-11T12:21:00.096Z,98696.36
2018-03-11T12:23:27.914Z,98696.55
2018-03-11T12:25:55.461Z,98698.02
2018-03-11T12:28:23.116Z,98689.21
2018-03-11T12:30:50.668Z,98682.27
2018-03-11T12:33:18.237Z,98686.03
2018-03-11T12:35:45.858Z,98689.19
2018-03-11T12:38:13.417Z,98690.66
2018-03-11T12:40:41.085Z,98685.36
2018-03-11T12:43:08.858Z,98686.56
2018-03-11T12:45:36.417Z,98685.58
2018-03-11T12:48:03.978Z,98692.94
2018-03-11T12:50:31.784Z,98693.02
2018-03-11T12:52:59.341Z,98684.95
2018-03-11T12:55:26.902Z,98687.97
2018-03-11T12:57:54.527Z,98686.97
2018-03-11T13:00:22.252Z,98679.56
2018-03-11T13:02:49.969Z,98685.14
2018-03-11T13:05:17.584Z,98679.57
2018-03-11T13:07:45.161Z,98675.14
2018-03-11T13:10:12.718Z,98673.47
2018-03-11T13:12:40.331Z,98668.92
2018-03-11T13:15:08.091Z,98663.23
2018-03-11T13:17:35.656Z,98667.50
2018-03-11T13:20:15.035Z,98663.41
2018-03-11T13:22:42.590Z,98658.95
2018-03-11T13:25:10.143Z,98656.70
2018-03-11T13:27:37.828Z,98657.41
2018-03-11T13:30:05.639Z,98656.59
2018-03-11T13:32:45.022Z,98648.88
2018-03-11T13:35:12.817Z,98646.96
2018-03-11T13:37:40.505Z,98652.13
2018-03-11T13:40:19.890Z,98653.16
2018-03-11T13:42:47.451Z,98640.36
2018-03-11T13:45:26.826Z,98647.59
2018-03-11T13:47:54.459Z,98647.17
2018-03-11T13:50:22.207Z,98641.70
2018-03-11T13:55:55.290Z,98642.53
2018-03-11T13:58:34.626Z,98633.56
2018-03-11T14:01:02.187Z,98637.98
2018-03-11T14:03:29.755Z,98640.94
2018-03-11T14:05:57.373Z,98639.89
2018-03-11T14:08:24.932Z,98635.40
2018-03-11T14:10:52.496Z,98634.33
2018-03-11T14:13:20.342Z,98630.65
2018-03-11T14:15:48.162Z,98628.20
2018-03-11T14:18:15.979Z,98634.00
2018-03-11T14:20:43.809Z,98635.36
2018-03-11T14:23:11.616Z,98642.91
2018-03-11T14:25:39.433Z,98643.80
2018-03-11T14:28:07.256Z,98642.52
2018-03-11T14:30:34.882Z,98640.70
2018-03-11T14:33:02.447Z,98642.45
2018-03-11T14:35:30.081Z,98640.94
2018-03-11T14:37:57.794Z,98637.33
2018-03-11T14:40:25.350Z,98632.11
2018-03-11T14:42:52.970Z,98638.84
2018-03-11T14:45:20.559Z,98638.73
2018-03-11T14:47:48.115Z,98633.16
2018-03-11T14:50:15.727Z,98633.55
2018-03-11T14:52:43.324Z,98636.45
2018-03-11T14:55:10.888Z,98638.98
2018-03-11T14:57:38.516Z,98640.41
2018-03-11T15:00:06.142Z,98638.27
2018-03-11T15:02:33.913Z,98629.38
2018-03-11T15:05:01.512Z,98643.94
2018-03-11T15:07:29.070Z,98647.36
2018-03-11T15:09:56.837Z,98647.95
2018-03-11T15:12:24.460Z,98642.25
2018-03-11T15:14:52.025Z,98646.75
2018-03-11T15:17:19.573Z,98639.45
2018-03-11T15:19:47.199Z,98657.31
2018-03-11T15:22:14.831Z,98654.19
2018-03-11T15:24:42.394Z,98656.80
2018-03-11T15:27:10.184Z,98659.57
2018-03-11T15:29:37.738Z,98652.19
2018-03-11T15:32:05.330Z,98661.61
2018-03-11T15:34:32.944Z,98652.83
2018-03-11T15:37:00.498Z,98656.22
2018-03-11T15:39:28.057Z,98659.42
2018-03-11T15:41:55.955Z,98663.03
2018-03-11T15:44:23.542Z,98661.43
2018-03-11T15:46:51.105Z,98664.70
2018-03-11T15:49:18.731Z,98662.20
2018-03-11T15:51:46.446Z,98667.28
2018-03-11T15:54:14.021Z,98663.70
2018-03-11T15:56:41.649Z,98662.44
2018-03-11T15:59:09.397Z,98666.03
2018-03-11T16:01:37.134Z,98665.28
2018-03-11T16:04:04.787Z,98670.60
2018-03-11T16:06:32.571Z,98674.30
2018-03-11T16:09:00.390Z,98673.33
2018-03-11T16:11:28.005Z,98667.80
2018-03-11T16:13:55.797Z,98674.14
2018-03-11T16:16:23.357Z,98675.84
2018-03-11T16:18:51.163Z,98680.88
2018-03-11T16:21:18.727Z,98688.00
2018-03-11T16:23:46.501Z,98688.05
2018-03-11T16:26:14.316Z,98693.83
2018-03-11T16:28:41.886Z,98701.42
2018-03-11T16:31:09.450Z,98706.91
2018-03-11T16:33:37.150Z,98686.41
2018-03-11T16:36:04.726Z,98708.23
2018-03-11T16:38:32.287Z,98708.90
2018-03-11T16:41:00.124Z,98712.59
2018-03-11T16:43:27.686Z,98705.37
2018-03-11T16:45:55.442Z,98712.70
2018-03-11T16:48:23.063Z,98706.67
2018-03-11T16:50:50.687Z,98715.50
2018-03-11T16:53:18.430Z,98712.87
2018-03-11T16:55:46.058Z,98714.72
2018-03-11T16:58:13.851Z,98718.86
2018-03-11T17:00:41.518Z,98719.80
2018-03-11T17:03:09.168Z,98722.02
2018-03-11T17:05:36.904Z,98724.20
2018-03-11T17:08:04.504Z,98719.92
2018-03-11T17:10:32.126Z,98723.52
2018-03-11T17:12:59.702Z,98718.38
2018-03-11T17:15:29.476Z,98726.10
2018-03-11T17:17:57.305Z,98726.76
2018-03-11T17:20:25.121Z,98724.55
2018-03-11T17:22:52.841Z,98728.55
2018-03-11T17:25:20.454Z,98726.50
2018-03-11T17:27:48.038Z,98732.25
2018-03-11T17:30:15.623Z,98728.85
2018-03-11T17:32:43.411Z,98723.95
2018-03-11T17:35:10.990Z,98727.25
2018-03-11T17:37:38.564Z,98729.98
2018-03-11T17:40:06.217Z,98732.02
2018-03-11T17:42:33.796Z,98734.72
2018-03-11T17:45:01.363Z,98738.39
2018-03-11T17:47:28.986Z,98741.05
2018-03-11T17:49:56.636Z,98736.88
2018-03-11T17:52:24.234Z,98745.13
2018-03-11T17:54:51.866Z,98745.84
2018-03-11T17:57:19.481Z,98735.39
2018-03-11T17:59:47.210Z,98734.42
2018-03-11T18:02:15.026Z,98732.62
2018-03-11T18:04:42.606Z,98733.69
2018-03-11T18:07:10.191Z,98738.83
2018-03-11T18:09:38.080Z,98741.75
2018-03-11T18:12:05.654Z,98738.70
2018-03-11T18:14:33.227Z,98737.08
2018-03-11T18:17:00.862Z,98736.28
2018-03-11T18:19:28.653Z,98745.19
2018-03-11T18:21:56.242Z,98737.06
2018-03-11T18:24:24.008Z,98743.70
2018-03-11T18:26:51.586Z,98742.59
2018-03-11T18:29:19.178Z,98742.28
2018-03-11T18:31:46.836Z,98744.80
2018-03-11T18:34:14.404Z,98740.50
2018-03-11T18:36:42.178Z,98742.67
2018-03-11T18:39:09.809Z,98748.85
2018-03-11T18:41:37.374Z,98750.39
2018-03-11T18:44:04.982Z,98749.31
2018-03-11T18:46:32.605Z,98740.00
2018-03-11T18:49:00.162Z,98736.44
2018-03-11T18:51:27.776Z,98737.00
2018-03-11T18:53:55.418Z,98727.23
2018-03-11T18:56:23.225Z,98728.34
2018-03-11T18:58:50.793Z,98723.71
2018-03-11T19:01:18.685Z,98732.53
2018-03-11T19:03:46.301Z,98729.29
2018-03-11T19:06:14.094Z,98724.91
2018-03-11T19:08:41.762Z,98724.88
2018-03-11T19:11:09.336Z,98722.16
2018-03-11T19:13:36.893Z,98714.58
2018-03-11T19:16:04.721Z,98717.41
2018-03-11T19:18:32.282Z,98718.45
2018-03-11T19:20:59.842Z,98715.13
2018-03-11T19:23:27.824Z,98714.64
2018-03-11T19:25:55.641Z,98718.01
2018-03-11T19:28:23.487Z,98711.64
2018-03-11T19:30:51.215Z,98706.97
2018-03-11T19:33:18.797Z,98706.63
2018-03-11T19:35:46.380Z,98703.07
2018-03-11T19:38:14.021Z,98710.69
2018-03-11T19:40:41.848Z,98710.58
2018-03-11T19:43:09.453Z,98709.98
2018-03-11T19:45:37.086Z,98714.16
2018-03-11T19:48:04.658Z,98707.92
2018-03-11T19:50:32.388Z,98705.92
2018-03-11T19:53:00.086Z,98707.94
2018-03-11T19:55:27.821Z,98711.27
2018-03-11T19:57:55.415Z,98710.72
2018-03-11T20:00:23.358Z,98708.83
2018-03-11T20:02:51.071Z,98715.38
2018-03-11T20:05:18.831Z,98720.56
2018-03-11T20:07:46.486Z,98718.23
2018-03-11T20:10:14.062Z,98721.02
2018-03-11T20:12:41.776Z,98720.84
2018-03-11T20:15:09.422Z,98725.07
2018-03-11T20:17:36.987Z,98728.06
2018-03-11T20:20:04.766Z,98733.38
2018-03-11T20:22:32.757Z,98731.46
2018-03-11T20:25:00.577Z,98733.65
2018-03-11T20:27:28.395Z,98730.37
2018-03-11T20:29:56.254Z,98732.20
2018-03-11T20:32:23.810Z,98736.14
2018-03-11T20:34:51.511Z,98732.05
2018-03-11T20:37:19.476Z,98729.48
2018-03-11T20:39:47.287Z,98729.48
2018-03-11T20:42:15.031Z,98724.39
2018-03-11T20:44:42.653Z,98719.86
2018-03-11T20:47:10.329Z,98714.35
2018-03-11T20:49:37.904Z,98702.98
2018-03-11T20:52:05.777Z,98702.40
2018-03-11T20:54:33.345Z,98696.27
2018-03-11T20:57:00.910Z,98701.82
2018-03-11T20:59:28.537Z,98699.67
2018-03-11T21:01:56.234Z,98701.03
2018-03-11T21:04:23.968Z,98704.95
2018-03-11T21:06:51.786Z,98705.79
2018-03-11T21:09:19.604Z,98700.84
2018-03-11T21:11:47.203Z,98706.05
2018-03-11T21:14:14.932Z,98708.87
2018-03-11T21:16:42.507Z,98709.75
2018-03-11T21:19:10.260Z,98722.88
2018-03-11T21:21:38.096Z,98716.01
2018-03-11T21:24:05.914Z,98711.77
2018-03-11T21:26:33.732Z,98713.55
2018-03-11T21:29:01.361Z,98718.86
2018-03-11T21:31:28.945Z,98718.17
2018-03-11T21:33:56.764Z,98714.25
2018-03-11T21:36:24.402Z,98713.98
2018-03-11T21:38:51.992Z,98712.09
2018-03-11T21:41:19.576Z,98710.05
2018-03-11T21:43:47.359Z,98707.45
2018-03-11T21:46:14.934Z,98710.11
2018-03-11T21:48:42.506Z,98708.33
2018-03-11T21:51:10.134Z,98710.28
2018-03-11T21:53:38.040Z,98709.12
2018-03-11T21:56:05.628Z,98705.35
2018-03-11T21:58:33.247Z,98698.33
2018-03-11T22:01:00.810Z,98694.05
2018-03-11T22:03:28.374Z,98689.82
2018-03-11T22:05:56.222Z,98684.04
2018-03-11T22:08:24.039Z,98685.19
2018-03-11T22:10:51.598Z,98686.81
2018-03-11T22:13:19.214Z,98683.27
2018-03-11T22:15:46.780Z,98687.48
2018-03-11T22:18:14.361Z,98684.78
2018-03-11T22:20:42.099Z,98675.80
2018-03-11T22:23:09.849Z,98671.73
2018-03-11T22:25:37.426Z,98674.48
2018-03-11T22:28:05.285Z,98669.27
2018-03-11T22:30:33.002Z,98671.94
2018-03-11T22:33:00.634Z,98666.71
2018-03-11T22:35:28.305Z,98663.29
2018-03-11T22:37:55.881Z,98669.74
2018-03-11T22:40:23.437Z,98663.42
2018-03-11T22:42:51.068Z,98666.61
2018-03-11T22:45:18.790Z,98664.73
2018-03-11T22:47:46.406Z,98669.07
2018-03-11T22:50:14.037Z,98662.55
2018-03-11T22:52:41.868Z,98669.53
2018-03-11T22:55:09.690Z,98661.72
2018-03-11T22:57:37.389Z,98664.02
2018-03-11T23:00:05.220Z,98657.81
2018-03-11T23:02:32.778Z,98662.94
2018-03-11T23:05:00.459Z,98656.50
2018-03-11T23:07:28.011Z,98656.92
2018-03-11T23:09:55.576Z,98653.02
2018-03-11T23:12:23.241Z,98657.52
2018-03-11T23:14:51.027Z,98657.34
2018-03-11T23:17:18.847Z,98657.28
2018-03-11T23:19:46.466Z,98654.80
2018-03-11T23:22:14.037Z,98653.31
2018-03-11T23:24:41.598Z,98648.84
2018-03-11T23:27:09.420Z,98654.89
2018-03-11T23:29:36.982Z,98652.91
2018-03-11T23:32:04.554Z,98645.93
2018-03-11T23:34:32.371Z,98647.50
2018-03-11T23:36:59.939Z,98645.22
2018-03-11T23:39:27.508Z,98649.16
2018-03-11T23:41:55.271Z,98646.11
2018-03-11T23:44:23.044Z,98643.86
2018-03-11T23:46:50.613Z,98647.30
2018-03-11T23:49:18.234Z,98637.00
2018-03-11T23:51:45.804Z,98628.37
2018-03-11T23:54:13.370Z,98621.00
2018-03-11T23:56:41.197Z,98626.83
2018-03-11T23:59:09.052Z,98625.47
